Wetterdaten: aktuell Sonntag, 11.04.2021 03:40
Datum Zeit Temperatur Bodentemp. Luftfeuchte Luftdruck Niederschlag Windgeschw. Windrichtung Windrichtung Sonnenschein Nieder.dauer Evapotrans. Solarstrahl. Taupunkt Windchill Windböen
11.04.2021 03:40 3,6 °C 3,3 °C 99 % 1009,3 hPa 1,2 l/m² 12,6 km/h (3 Bft) O 90 ° 0 min 60 min 0 mm 0 W/m² 3,5 °C 0,4 °C 21,5 km/h (4 Bft)
11.04.2021 02:40 3,6 °C 3,3 °C 97 % 1010,4 hPa 0,6 l/m² 16,1 km/h (3 Bft) O 90 ° 0 min 60 min 0 mm 0 W/m² 3,2 °C -0,2 °C 23,3 km/h (4 Bft)
11.04.2021 01:40 3,4 °C 2,8 °C 94 % 1012,1 hPa 1,0 l/m² 10,8 km/h (2 Bft) O 90 ° 0 min 60 min 0 mm 0 W/m² 2,5 °C 0,6 °C 14,4 km/h (3 Bft)
11.04.2021 00:40 4,0 °C 2,8 °C 79 % 1013,5 hPa 0,0 l/m² 17,9 km/h (3 Bft) O 90 ° 0 min 14 min 0 mm 0 W/m² 0,7 °C 0,1 °C 23,3 km/h (4 Bft)
10.04.2021 23:40 5,1 °C 3,9 °C 67 % 1013,9 hPa 0,0 l/m² 14,4 km/h (3 Bft) O-NO 67 ° 0 min 4 min 0 mm 0 W/m² -0,5 °C 2,0 °C 23,3 km/h (4 Bft)
10.04.2021 22:40 5,1 °C 4,4 °C 59 % 1014,2 hPa 0,0 l/m² 9,0 km/h (2 Bft) O-NO 67 ° 0 min 0 min 0 mm 0 W/m² -2,2 °C 3,0 °C 10,8 km/h (2 Bft)
10.04.2021 21:40 5,3 °C 5,0 °C 59 % 1014,7 hPa 0,0 l/m² 7,2 km/h (2 Bft) O 90 ° 0 min 0 min 0 mm 0 W/m² -2,0 °C 3,7 °C 10,8 km/h (2 Bft)
10.04.2021 20:40 5,6 °C 5,0 °C 62 % 1014,6 hPa 0,0 l/m² 9,0 km/h (2 Bft) O 90 ° 3 min 0 min 0 mm 0 W/m² -1,1 °C 3,6 °C 12,6 km/h (3 Bft)
10.04.2021 19:40 6,4 °C 6,1 °C 60 % 1014,6 hPa 0,0 l/m² 10,8 km/h (2 Bft) O 90 ° 0 min 0 min 0 mm 28 W/m² -0,8 °C 4,2 °C 14,4 km/h (3 Bft)
10.04.2021 18:40 8,2 °C 8,3 °C 50 % 1014,9 hPa 0,0 l/m² 12,6 km/h (3 Bft) O 90 ° 12 min 0 min 0 mm 113 W/m² -1,6 °C 6,0 °C 16,1 km/h (3 Bft)
10.04.2021 17:40 8,8 °C 9,4 °C 47 % 1015,0 hPa 0,0 l/m² 10,8 km/h (2 Bft) O 90 ° 51 min 0 min 0 mm 174 W/m² -1,9 °C 7,1 °C 12,6 km/h (3 Bft)
10.04.2021 16:40 8,8 °C 10,0 °C 45 % 1015,4 hPa 0,0 l/m² 7,2 km/h (2 Bft) N-NW 337 ° 45 min 0 min 0 mm 279 W/m² -2,5 °C 7,8 °C 9,0 km/h (2 Bft)
10.04.2021 15:40 8,9 °C 10,6 °C 44 % 1015,6 hPa 0,0 l/m² 7,2 km/h (2 Bft) O-NO 67 ° 60 min 0 min 0 mm 359 W/m² -2,7 °C 7,9 °C 12,6 km/h (3 Bft)
10.04.2021 14:40 8,9 °C 10,0 °C 45 % 1016,0 hPa 0,0 l/m² 5,4 km/h (1 Bft) SW 225 ° 52 min 0 min 0 mm 577 W/m² -2,4 °C 8,4 °C 9,0 km/h (2 Bft)
10.04.2021 13:40 7,5 °C 7,8 °C 49 % 1016,1 hPa 0,0 l/m² 3,6 km/h (1 Bft) W 270 ° 23 min 0 min 0 mm 830 W/m² -2,5 °C 7,5 °C 5,4 km/h (1 Bft)
10.04.2021 12:40 7,2 °C 7,2 °C 51 % 1016,3 hPa 0,0 l/m² 1,8 km/h (1 Bft) O-SO 112 ° 56 min 0 min 0 mm 788 W/m² -2,2 °C 7,2 °C 5,4 km/h (1 Bft)
10.04.2021 11:40 6,2 °C 5,6 °C 51 % 1016,1 hPa 0,0 l/m² 1,8 km/h (1 Bft) NW 315 ° 60 min 0 min 0 mm 476 W/m² -3,2 °C 6,2 °C 3,6 km/h (1 Bft)
10.04.2021 10:40 5,3 °C 4,4 °C 53 % 1015,6 hPa 0,0 l/m² 3,6 km/h (1 Bft) NW 315 ° 60 min 0 min 0 mm 700 W/m² -3,5 °C 5,3 °C 7,2 km/h (2 Bft)
10.04.2021 09:40 4,4 °C 3,9 °C 72 % 1015,2 hPa 0,0 l/m² 5,4 km/h (1 Bft) NW 315 ° 43 min 0 min 0 mm 278 W/m² -0,2 °C 3,2 °C 7,2 km/h (2 Bft)
10.04.2021 08:40 3,1 °C 3,3 °C 94 % 1014,6 hPa 0,0 l/m² 1,8 km/h (1 Bft) S-SO 157 ° 0 min 0 min 0 mm 169 W/m² 2,2 °C 3,1 °C 3,6 km/h (1 Bft)
10.04.2021 07:40 2,0 °C 1,7 °C 92 % 1013,9 hPa 0,0 l/m² 0,0 km/h (0 Bft) N 0 ° 1 min 0 min 0 mm 74 W/m² 0,8 °C 2,0 °C 0,0 km/h (0 Bft)
10.04.2021 06:40 2,3 °C 1,1 °C 91 % 1013,1 hPa 0,0 l/m² 0,0 km/h (0 Bft) N 0 ° 0 min 0 min 0 mm 9 W/m² 1,0 °C 2,3 °C 0,0 km/h (0 Bft)
10.04.2021 05:40 2,7 °C 1,7 °C 91 % 1013,0 hPa 0,0 l/m² 1,8 km/h (1 Bft) W-NW 292 ° 0 min 0 min 0 mm 0 W/m² 1,4 °C 2,7 °C 5,4 km/h (1 Bft)
10.04.2021 04:40 3,1 °C 2,2 °C 94 % 1012,5 hPa 0,0 l/m² 1,8 km/h (1 Bft) W-NW 292 ° 0 min 0 min 0 mm 0 W/m² 2,2 °C 3,1 °C 3,6 km/h (1 Bft)
10.04.2021 04:00 3,3 °C 2,8 °C 94 % 1012,5 hPa 0,0 l/m² 0,0 km/h (0 Bft) W-NW 292 ° 0 min 0 min 0 mm 0 W/m² 2,4 °C 3,3 °C 1,8 km/h (1 Bft)
_ Min-Zeit 07:28 06:31 14:14 03:30 - 04:00 - - - - - - 13:44 01:04 04:09
Minimum _ 2,0 °C 1,1 °C 40 % 1009,3 hPa - 0,0 km/h (0 Bft) - - - - - - -4,8 °C -1,0 °C 0,0 km/h (0 Bft)
_ Max-Zeit 14:58 14:57 03:23 12:30 00:43 00:34 - - 06:44 22:48 13:00 13:45 03:23 14:58 00:18
Maximum _ 10,1 °C 11,1 °C 99 % 1016,3 hPa 0,2 l/m² 25,1 km/h
O (4 Bft)
- - 1 min 1 min 0 mm 865 W/m² 3,5 °C 10,1 °C 37,7 km/h
O (5 Bft)
Durchschnitt _ 5,3 °C 5,1 °C 70 % 1014,1 hPa #2,8 l/m² 6,4 km/h (2 Bft) O - #0 min. #3:13 h #0,050 mm 0 W/m² -0,3 °C 4,1 °C 9,8 km/h (2 Bft)